createdAt,value
2023-03-04T00:01:08.083Z,73.21
2023-03-04T00:03:37.707Z,73.06
2023-03-04T00:06:07.729Z,72.85
2023-03-04T00:08:37.124Z,72.64
2023-03-04T00:11:05.811Z,72.45
2023-03-04T00:13:35.018Z,72.33
2023-03-04T00:16:04.132Z,72.44
2023-03-04T00:18:32.991Z,72.33
2023-03-04T00:21:02.320Z,72.19
2023-03-04T00:23:31.406Z,72.01
2023-03-04T00:26:01.404Z,71.91
2023-03-04T00:28:31.056Z,71.72
2023-03-04T00:31:02.592Z,71.75
2023-03-04T00:33:32.692Z,71.51
2023-03-04T00:36:02.683Z,71.58
2023-03-04T00:38:32.408Z,71.41
2023-03-04T00:41:01.410Z,71.36
2023-03-04T00:43:30.506Z,71.31
2023-03-04T00:46:00.448Z,71.10
2023-03-04T00:48:29.309Z,71.07
2023-03-04T00:50:58.294Z,71.19
2023-03-04T00:53:29.525Z,70.93
2023-03-04T00:55:58.906Z,70.60
2023-03-04T00:58:27.877Z,70.51
2023-03-04T01:00:56.864Z,70.59
2023-03-04T01:03:30.122Z,70.44
2023-03-04T01:06:00.034Z,70.86
2023-03-04T01:08:29.068Z,70.98
2023-03-04T01:10:58.433Z,71.33
2023-03-04T01:13:27.542Z,71.34
2023-03-04T01:15:58.464Z,71.37
2023-03-04T01:18:27.782Z,71.27
2023-03-04T01:20:57.781Z,71.44
2023-03-04T01:23:29.845Z,71.34
2023-03-04T01:25:58.843Z,71.36
2023-03-04T01:28:27.981Z,71.46
2023-03-04T01:30:56.788Z,71.68
2023-03-04T01:33:28.890Z,71.80
2023-03-04T01:35:58.923Z,72.06
2023-03-04T01:38:28.726Z,72.49
2023-03-04T01:40:58.039Z,72.49
2023-03-04T01:43:28.874Z,72.67
2023-03-04T01:45:57.768Z,72.58
2023-03-04T01:48:30.101Z,72.64
2023-03-04T01:50:59.933Z,72.43
2023-03-04T01:53:30.661Z,72.65
2023-03-04T01:56:11.784Z,72.71
2023-03-04T01:58:40.428Z,73.10
2023-03-04T02:01:12.233Z,73.23
2023-03-04T02:03:41.998Z,73.30
2023-03-04T02:06:12.017Z,73.20
2023-03-04T02:08:40.899Z,73.29
2023-03-04T02:11:11.735Z,73.17
2023-03-04T02:13:41.035Z,73.70
2023-03-04T02:16:11.156Z,73.77
2023-03-04T02:18:58.172Z,73.81
2023-03-04T02:21:30.475Z,73.85
2023-03-04T02:24:16.033Z,74.29
2023-03-04T02:26:47.206Z,74.67
2023-03-04T02:29:19.746Z,74.87
2023-03-04T02:31:52.016Z,75.09
2023-03-04T02:34:21.617Z,75.25
2023-03-04T02:36:51.476Z,75.23
2023-03-04T02:39:20.439Z,75.29
2023-03-04T02:41:50.195Z,75.39
2023-03-04T02:44:21.502Z,75.85
2023-03-04T02:46:50.827Z,76.07
2023-03-04T02:49:19.980Z,76.32
2023-03-04T02:52:19.292Z,76.51
2023-03-04T02:54:49.403Z,76.61
2023-03-04T02:57:18.713Z,76.86
2023-03-04T02:59:54.813Z,77.09
2023-03-04T03:02:27.505Z,77.38
2023-03-04T03:04:56.745Z,77.53
2023-03-04T03:07:28.205Z,77.78
2023-03-04T03:09:57.082Z,77.80
2023-03-04T03:12:26.894Z,77.65
2023-03-04T03:14:55.380Z,77.98
2023-03-04T03:17:25.090Z,78.11
2023-03-04T03:19:54.124Z,78.11
2023-03-04T03:22:26.889Z,78.28
2023-03-04T03:24:57.089Z,78.53
2023-03-04T03:27:28.232Z,78.45
2023-03-04T03:29:57.535Z,78.85
2023-03-04T03:32:26.480Z,78.46
2023-03-04T03:34:55.507Z,78.81
2023-03-04T03:37:24.604Z,79.07
2023-03-04T03:39:53.804Z,79.31
2023-03-04T03:42:22.691Z,79.21
2023-03-04T03:44:51.706Z,79.46
2023-03-04T03:47:20.984Z,79.49
2023-03-04T03:49:49.810Z,79.65
2023-03-04T03:52:20.303Z,79.93
2023-03-04T03:54:49.957Z,79.76
2023-03-04T03:57:18.390Z,80.07
2023-03-04T03:59:47.378Z,79.80
2023-03-04T04:02:17.514Z,79.69
2023-03-04T04:04:46.287Z,79.86
2023-03-04T04:07:15.484Z,80.17
2023-03-04T04:09:45.611Z,80.50
2023-03-04T04:12:15.835Z,80.50
2023-03-04T04:14:49.426Z,80.80
2023-03-04T04:17:18.234Z,80.78
2023-03-04T04:19:47.007Z,80.87
2023-03-04T04:22:17.740Z,80.90
2023-03-04T04:24:46.734Z,80.82
2023-03-04T04:27:15.771Z,81.11
2023-03-04T04:29:45.023Z,81.33
2023-03-04T04:32:14.017Z,81.13
2023-03-04T04:34:45.156Z,81.02
2023-03-04T04:37:14.184Z,80.65
2023-03-04T04:39:44.308Z,80.23
2023-03-04T04:42:14.597Z,79.90
2023-03-04T04:44:48.296Z,79.55
2023-03-04T04:47:17.636Z,79.31
2023-03-04T04:49:46.284Z,78.99
2023-03-04T04:52:15.174Z,78.54
2023-03-04T04:54:44.372Z,77.97
2023-03-04T04:57:13.605Z,77.51
2023-03-04T04:59:43.001Z,76.93
2023-03-04T05:02:13.073Z,76.44
2023-03-04T05:04:41.874Z,75.72
2023-03-04T05:07:10.581Z,75.38
2023-03-04T05:09:40.595Z,74.84
2023-03-04T05:12:09.570Z,74.26
2023-03-04T05:15:03.806Z,73.85
2023-03-04T05:17:32.850Z,73.40
2023-03-04T05:20:03.797Z,72.86
2023-03-04T05:22:34.076Z,72.19
2023-03-04T05:25:03.448Z,71.26
2023-03-04T05:27:32.620Z,70.68
2023-03-04T05:30:01.961Z,69.76
2023-03-04T05:32:31.437Z,68.74
2023-03-04T05:35:01.264Z,67.69
2023-03-04T05:37:30.939Z,66.67
2023-03-04T05:40:00.617Z,66.16
2023-03-04T05:42:30.731Z,65.53
2023-03-04T05:44:59.399Z,65.02
2023-03-04T05:47:28.691Z,64.72
2023-03-04T05:49:58.258Z,64.83
2023-03-04T05:52:27.063Z,64.17
2023-03-04T05:54:56.249Z,63.45
2023-03-04T05:57:26.520Z,62.56
2023-03-04T05:59:55.376Z,61.87
2023-03-04T06:02:24.010Z,61.37
2023-03-04T06:04:53.343Z,60.79
2023-03-04T06:07:23.240Z,59.69
2023-03-04T06:09:53.692Z,58.63
2023-03-04T06:12:23.335Z,58.72
2023-03-04T06:14:53.346Z,58.24
2023-03-04T06:17:24.151Z,57.88
2023-03-04T06:19:53.165Z,57.44
2023-03-04T06:22:21.735Z,56.70
2023-03-04T06:24:50.698Z,56.16
2023-03-04T06:27:21.478Z,55.79
2023-03-04T06:29:52.018Z,55.36
2023-03-04T06:32:21.406Z,54.32
2023-03-04T06:34:52.721Z,53.22
2023-03-04T06:37:21.585Z,52.33
2023-03-04T06:39:52.811Z,52.02
2023-03-04T06:42:21.433Z,51.46
2023-03-04T06:44:50.443Z,51.35
2023-03-04T06:47:19.640Z,51.21
2023-03-04T06:49:48.269Z,50.47
2023-03-04T06:52:16.859Z,49.73
2023-03-04T06:54:47.531Z,49.24
2023-03-04T06:57:16.298Z,49.02
2023-03-04T06:59:45.592Z,49.55
2023-03-04T07:02:15.705Z,48.62
2023-03-04T07:04:44.396Z,49.58
2023-03-04T07:07:13.206Z,49.26
2023-03-04T07:09:42.665Z,49.27
2023-03-04T07:12:11.660Z,49.91
2023-03-04T07:14:43.317Z,49.85
2023-03-04T07:17:13.387Z,49.38
2023-03-04T07:19:43.614Z,49.29
2023-03-04T07:22:12.461Z,49.49
2023-03-04T07:24:42.986Z,49.87
2023-03-04T07:27:11.692Z,50.37
2023-03-04T07:29:42.908Z,50.01
2023-03-04T07:32:13.178Z,50.05
2023-03-04T07:34:42.626Z,50.99
2023-03-04T07:37:12.140Z,51.28
2023-03-04T07:39:41.336Z,51.10
2023-03-04T07:42:10.244Z,50.88
2023-03-04T07:44:41.616Z,51.55
2023-03-04T07:47:10.854Z,51.33
2023-03-04T07:49:39.512Z,51.74
2023-03-04T07:52:09.061Z,51.70
2023-03-04T07:54:37.979Z,52.07
2023-03-04T07:57:10.893Z,51.55
2023-03-04T07:59:40.014Z,50.86
2023-03-04T08:02:10.123Z,51.27
2023-03-04T08:04:39.402Z,51.72
2023-03-04T08:07:08.315Z,52.23
2023-03-04T08:09:38.140Z,51.54
2023-03-04T08:12:07.864Z,51.46
2023-03-04T08:14:37.026Z,51.48
2023-03-04T08:17:15.150Z,51.26
2023-03-04T08:19:45.246Z,51.49
2023-03-04T08:22:16.734Z,52.19
2023-03-04T08:24:46.712Z,52.14
2023-03-04T08:27:15.837Z,52.70
2023-03-04T08:29:45.305Z,53.50
2023-03-04T08:32:14.520Z,53.70
2023-03-04T08:34:45.641Z,53.77
2023-03-04T08:37:18.513Z,54.02
2023-03-04T08:39:47.761Z,54.33
2023-03-04T08:42:17.415Z,54.45
2023-03-04T08:44:47.788Z,55.16
2023-03-04T08:47:16.704Z,55.06
2023-03-04T08:49:45.806Z,55.38
2023-03-04T08:52:17.449Z,56.16
2023-03-04T08:54:46.239Z,56.04
2023-03-04T08:57:15.252Z,56.46
2023-03-04T08:59:44.598Z,56.47
2023-03-04T09:02:13.310Z,56.55
2023-03-04T09:04:42.116Z,56.84
2023-03-04T09:07:11.547Z,57.52
2023-03-04T09:09:40.975Z,57.70
2023-03-04T09:12:11.646Z,58.05
2023-03-04T09:14:42.354Z,57.59
2023-03-04T09:17:12.127Z,57.63
2023-03-04T09:19:41.291Z,57.98
2023-03-04T09:22:11.539Z,58.02
2023-03-04T09:24:40.818Z,56.93
2023-03-04T09:27:10.695Z,56.00
2023-03-04T09:29:40.216Z,56.47
2023-03-04T09:32:09.263Z,56.31
2023-03-04T09:34:40.288Z,56.59
2023-03-04T09:37:09.230Z,56.98
2023-03-04T09:39:40.164Z,56.81
2023-03-04T09:42:10.582Z,56.15
2023-03-04T09:44:41.165Z,56.29
2023-03-04T09:47:15.664Z,56.39
2023-03-04T09:49:46.490Z,56.59
2023-03-04T09:52:31.209Z,56.13
2023-03-04T09:55:22.658Z,56.02
2023-03-04T09:57:57.506Z,56.09
2023-03-04T10:00:43.851Z,55.86
2023-03-04T10:03:18.453Z,56.02
2023-03-04T10:05:51.969Z,55.90
2023-03-04T10:08:26.246Z,55.67
2023-03-04T10:10:55.686Z,55.99
2023-03-04T10:13:54.945Z,56.34
2023-03-04T10:16:27.447Z,56.16
2023-03-04T10:19:00.602Z,55.45
2023-03-04T10:21:37.131Z,55.33
2023-03-04T10:24:13.907Z,54.92
2023-03-04T10:26:44.621Z,54.78
2023-03-04T10:29:15.896Z,54.84
2023-03-04T10:31:50.407Z,55.50
2023-03-04T10:34:19.767Z,55.04
2023-03-04T10:36:59.788Z,55.11
2023-03-04T10:39:35.874Z,55.12
2023-03-04T10:42:24.541Z,55.12
2023-03-04T10:44:58.375Z,55.50
2023-03-04T10:47:31.810Z,55.65
2023-03-04T10:50:03.241Z,55.04
2023-03-04T10:52:50.831Z,54.24
2023-03-04T10:55:22.439Z,54.36
2023-03-04T10:58:01.978Z,53.89
2023-03-04T11:00:35.094Z,54.63
2023-03-04T11:03:22.757Z,55.28
2023-03-04T11:05:54.127Z,55.79
2023-03-04T11:08:23.446Z,55.68
2023-03-04T11:10:55.469Z,55.65
2023-03-04T11:13:30.705Z,55.91
2023-03-04T11:16:27.419Z,55.32
2023-03-04T11:19:05.789Z,54.87
2023-03-04T11:21:40.171Z,54.59
2023-03-04T11:24:31.359Z,54.29
2023-03-04T11:27:12.868Z,54.78
2023-03-04T11:30:18.960Z,53.93
2023-03-04T11:32:50.283Z,54.20
2023-03-04T11:35:35.837Z,54.26
2023-03-04T11:38:23.126Z,54.31
2023-03-04T11:40:59.830Z,54.72
2023-03-04T11:43:36.510Z,53.98
2023-03-04T11:46:33.356Z,53.90
2023-03-04T11:49:27.136Z,53.79
2023-03-04T11:52:07.798Z,53.90
2023-03-04T11:55:19.654Z,54.21
2023-03-04T11:58:17.451Z,53.92
2023-03-04T12:01:00.334Z,54.36
2023-03-04T12:03:39.662Z,53.78
2023-03-04T12:06:46.856Z,53.31
2023-03-04T12:09:30.104Z,53.03
2023-03-04T12:12:24.168Z,53.57
2023-03-04T12:15:02.052Z,53.85
2023-03-04T12:18:10.966Z,53.60
2023-03-04T12:20:59.232Z,53.53
2023-03-04T12:23:30.023Z,52.81
2023-03-04T12:26:40.371Z,52.76
2023-03-04T12:29:17.919Z,52.96
2023-03-04T12:32:11.047Z,52.93
2023-03-04T12:35:23.170Z,53.49
2023-03-04T12:38:44.828Z,53.28
2023-03-04T12:41:24.483Z,53.17
2023-03-04T12:44:02.354Z,53.58
2023-03-04T12:46:39.960Z,54.27
2023-03-04T12:49:37.912Z,54.46
2023-03-04T12:52:17.048Z,54.62
2023-03-04T12:54:50.553Z,53.82
2023-03-04T12:57:48.649Z,53.52
2023-03-04T13:00:54.515Z,53.57
2023-03-04T13:03:45.674Z,53.40
2023-03-04T13:06:40.640Z,52.92
2023-03-04T13:09:34.790Z,52.87
2023-03-04T13:12:23.444Z,53.34
2023-03-04T13:15:09.432Z,53.74
2023-03-04T13:17:44.917Z,54.48
2023-03-04T13:20:34.520Z,54.74
2023-03-04T13:23:05.303Z,54.11
2023-03-04T13:25:56.911Z,53.58
2023-03-04T13:28:36.289Z,53.25
2023-03-04T13:31:14.693Z,53.04
2023-03-04T13:33:50.308Z,52.71
2023-03-04T13:36:28.477Z,52.68
2023-03-04T13:39:16.007Z,52.71
2023-03-04T13:41:52.570Z,52.78
2023-03-04T13:44:38.658Z,52.64
2023-03-04T13:47:30.655Z,52.50
2023-03-04T13:50:30.553Z,52.32
2023-03-04T13:53:21.805Z,51.84
2023-03-04T14:00:29.695Z,52.63
2023-03-04T14:03:27.077Z,52.76
2023-03-04T14:06:18.657Z,52.50
2023-03-04T14:08:49.707Z,52.44
2023-03-04T14:11:43.953Z,52.75
2023-03-04T14:14:16.913Z,52.89
2023-03-04T14:16:59.657Z,53.27
2023-03-04T14:19:39.448Z,53.50
2023-03-04T14:23:00.016Z,53.44
2023-03-04T14:31:06.197Z,53.36
2023-03-04T14:34:52.872Z,53.58
2023-03-04T14:41:55.860Z,53.93
2023-03-04T14:44:36.383Z,54.33
2023-03-04T14:47:17.667Z,54.54
2023-03-04T14:49:46.709Z,54.52
2023-03-04T14:52:30.439Z,54.41
2023-03-04T14:55:08.958Z,54.71
2023-03-04T14:57:43.160Z,54.29
2023-03-04T15:00:37.956Z,54.31
2023-03-04T15:03:23.345Z,54.13
2023-03-04T15:05:56.048Z,54.35
2023-03-04T15:08:36.866Z,54.65
2023-03-04T15:11:07.128Z,54.82
2023-03-04T15:13:57.366Z,54.53
2023-03-04T15:16:28.476Z,54.52
2023-03-04T15:19:00.028Z,55.12
2023-03-04T15:21:35.066Z,55.03
2023-03-04T15:24:06.454Z,55.28
2023-03-04T15:26:40.744Z,55.45
2023-03-04T15:29:17.083Z,55.10
2023-03-04T15:31:48.538Z,55.50
2023-03-04T15:34:19.261Z,55.36
2023-03-04T15:36:50.141Z,55.60
2023-03-04T15:39:19.346Z,56.23
2023-03-04T15:41:48.748Z,56.19
2023-03-04T15:44:17.736Z,56.43
2023-03-04T15:46:46.928Z,56.52
2023-03-04T15:49:16.769Z,56.98
2023-03-04T15:51:46.475Z,57.27
2023-03-04T15:54:15.187Z,57.28
2023-03-04T15:56:43.974Z,57.39
2023-03-04T15:59:14.170Z,57.72
2023-03-04T16:01:43.155Z,57.93
2023-03-04T16:04:15.473Z,58.25
2023-03-04T16:06:44.964Z,58.68
2023-03-04T16:09:15.356Z,58.46
2023-03-04T16:11:47.879Z,58.89
2023-03-04T16:14:16.914Z,59.09
2023-03-04T16:16:47.225Z,59.19
2023-03-04T16:19:16.325Z,59.37
2023-03-04T16:21:50.044Z,59.62
2023-03-04T16:24:19.216Z,59.57
2023-03-04T16:26:48.008Z,59.78
2023-03-04T16:29:17.141Z,59.80
2023-03-04T16:31:45.890Z,60.13
2023-03-04T16:34:14.994Z,59.50
2023-03-04T16:36:45.746Z,59.82
2023-03-04T16:39:20.373Z,60.34
2023-03-04T16:41:49.647Z,60.16
2023-03-04T16:44:18.736Z,60.34
2023-03-04T16:46:47.783Z,60.20
2023-03-04T16:49:16.926Z,60.31
2023-03-04T16:51:47.469Z,60.57
2023-03-04T16:54:19.144Z,60.50
2023-03-04T16:56:47.797Z,60.79
2023-03-04T16:59:17.300Z,60.36
2023-03-04T17:01:46.289Z,60.98
2023-03-04T17:04:17.138Z,60.80
2023-03-04T17:06:46.747Z,60.68
2023-03-04T17:09:15.634Z,60.53
2023-03-04T17:11:46.671Z,60.40
2023-03-04T17:14:17.201Z,60.32
2023-03-04T17:16:46.196Z,60.27
2023-03-04T17:19:18.825Z,60.55
2023-03-04T17:21:48.891Z,60.10
2023-03-04T17:24:19.017Z,60.47
2023-03-04T17:26:48.410Z,60.33
2023-03-04T17:29:17.715Z,60.09
2023-03-04T17:31:46.849Z,60.30
2023-03-04T17:34:16.095Z,59.94
2023-03-04T17:36:45.915Z,60.16
2023-03-04T17:39:15.682Z,59.88
2023-03-04T17:41:44.828Z,60.03
2023-03-04T17:44:18.736Z,60.16
2023-03-04T17:46:50.941Z,60.22
2023-03-04T17:49:21.529Z,60.54
2023-03-04T17:51:50.853Z,60.83
2023-03-04T17:54:19.624Z,61.21
2023-03-04T17:56:48.510Z,61.41
2023-03-04T17:59:17.923Z,61.54
2023-03-04T18:01:46.759Z,62.09
2023-03-04T18:04:15.699Z,62.17
2023-03-04T18:06:44.497Z,62.52
2023-03-04T18:09:13.477Z,62.95
2023-03-04T18:11:42.993Z,63.44
2023-03-04T18:14:13.153Z,63.55
2023-03-04T18:16:47.485Z,63.85
2023-03-04T18:19:18.667Z,64.20
2023-03-04T18:21:52.683Z,64.33
2023-03-04T18:24:22.182Z,64.61
2023-03-04T18:26:51.478Z,64.67
2023-03-04T18:29:22.028Z,65.03
2023-03-04T18:31:51.553Z,65.01
2023-03-04T18:34:21.509Z,65.49
2023-03-04T18:36:52.364Z,65.74
2023-03-04T18:39:25.050Z,66.00
2023-03-04T18:41:54.309Z,66.51
2023-03-04T18:44:23.081Z,66.29
2023-03-04T18:46:54.308Z,66.85
2023-03-04T18:49:23.987Z,66.62
2023-03-04T18:51:53.816Z,66.89
2023-03-04T18:54:24.125Z,66.79
2023-03-04T18:56:57.930Z,66.90
2023-03-04T18:59:31.892Z,67.09
2023-03-04T19:02:02.185Z,67.16
2023-03-04T19:04:32.185Z,67.53
2023-03-04T19:07:01.170Z,67.67
2023-03-04T19:09:30.275Z,68.10
2023-03-04T19:12:00.131Z,68.21
2023-03-04T19:14:30.312Z,68.48
2023-03-04T19:17:00.845Z,68.79
2023-03-04T19:19:32.790Z,68.92
2023-03-04T19:22:02.109Z,68.98
2023-03-04T19:24:31.399Z,69.18
2023-03-04T19:27:03.225Z,69.25
2023-03-04T19:29:32.452Z,69.56
2023-03-04T19:32:03.651Z,69.81
2023-03-04T19:34:35.112Z,70.12
2023-03-04T19:37:03.627Z,70.10
2023-03-04T19:39:32.721Z,70.59
2023-03-04T19:42:01.617Z,70.84
2023-03-04T19:44:31.424Z,71.02
2023-03-04T19:47:00.685Z,70.92
2023-03-04T19:49:34.166Z,71.21
2023-03-04T19:52:03.023Z,71.49
2023-03-04T19:54:32.132Z,71.73
2023-03-04T19:57:00.714Z,71.79
2023-03-04T19:59:29.678Z,72.09
2023-03-04T20:02:01.532Z,72.15
2023-03-04T20:04:31.182Z,72.51
2023-03-04T20:07:04.745Z,72.30
2023-03-04T20:09:38.452Z,72.56
2023-03-04T20:12:07.099Z,72.78
2023-03-04T20:14:37.982Z,73.10
2023-03-04T20:17:07.372Z,73.36
2023-03-04T20:19:36.377Z,73.88
2023-03-04T20:22:07.309Z,74.03
2023-03-04T20:24:36.396Z,73.93
2023-03-04T20:27:05.183Z,74.04
2023-03-04T20:29:36.372Z,74.00
2023-03-04T20:32:07.831Z,74.20
2023-03-04T20:34:37.690Z,74.40
2023-03-04T20:37:06.478Z,74.56
2023-03-04T20:39:35.882Z,74.65
2023-03-04T20:42:06.921Z,74.80
2023-03-04T20:44:39.324Z,75.07
2023-03-04T20:47:08.753Z,75.24
2023-03-04T20:49:37.304Z,75.34
2023-03-04T20:52:09.365Z,75.38
2023-03-04T20:54:39.007Z,75.42
2023-03-04T20:57:11.119Z,75.76
2023-03-04T20:59:41.928Z,75.74
2023-03-04T21:02:14.852Z,75.87
2023-03-04T21:04:44.326Z,76.30
2023-03-04T21:07:13.433Z,75.97
2023-03-04T21:09:45.952Z,76.06
2023-03-04T21:12:14.806Z,76.11
2023-03-04T21:14:45.746Z,76.28
2023-03-04T21:17:15.141Z,76.16
2023-03-04T21:19:44.240Z,76.19
2023-03-04T21:22:17.695Z,76.42
2023-03-04T21:24:46.760Z,76.58
2023-03-04T21:27:17.146Z,76.78
2023-03-04T21:29:46.875Z,76.79
2023-03-04T21:32:26.000Z,76.87
2023-03-04T21:34:55.681Z,77.09
2023-03-04T21:37:25.049Z,77.29
2023-03-04T21:39:55.384Z,77.35
2023-03-04T21:42:24.748Z,77.53
2023-03-04T21:44:59.273Z,77.62
2023-03-04T21:47:29.392Z,77.67
2023-03-04T21:49:58.289Z,77.67
2023-03-04T21:52:27.181Z,77.88
2023-03-04T21:54:56.382Z,77.95
2023-03-04T21:57:27.934Z,78.34
2023-03-04T21:59:58.772Z,78.79
2023-03-04T22:02:27.476Z,78.83
2023-03-04T22:04:59.730Z,79.17
2023-03-04T22:07:28.561Z,79.33
2023-03-04T22:09:59.966Z,79.56
2023-03-04T22:12:28.757Z,79.96
2023-03-04T22:14:58.778Z,80.48
2023-03-04T22:17:27.658Z,80.72
2023-03-04T22:19:56.865Z,81.07
2023-03-04T22:22:26.076Z,81.28
2023-03-04T22:24:55.528Z,81.41
2023-03-04T22:27:24.359Z,81.86
2023-03-04T22:29:53.766Z,82.18
2023-03-04T22:32:24.229Z,82.53
2023-03-04T22:34:56.173Z,82.54
2023-03-04T22:37:25.047Z,82.60
2023-03-04T22:39:53.742Z,82.63
2023-03-04T22:42:23.234Z,82.77
2023-03-04T22:44:51.923Z,83.07
2023-03-04T22:47:22.692Z,83.40
2023-03-04T22:49:51.548Z,83.42
2023-03-04T22:52:21.768Z,83.52
2023-03-04T22:54:50.661Z,83.46
2023-03-04T22:57:19.367Z,83.50
2023-03-04T22:59:49.356Z,83.85
2023-03-04T23:02:19.497Z,84.14
2023-03-04T23:04:48.667Z,84.66
2023-03-04T23:07:17.865Z,84.74
2023-03-04T23:09:47.060Z,85.03
2023-03-04T23:12:15.949Z,85.14
2023-03-04T23:14:45.203Z,85.15
2023-03-04T23:17:14.047Z,85.82
2023-03-04T23:19:42.825Z,85.90
2023-03-04T23:22:12.231Z,85.94
2023-03-04T23:24:42.758Z,85.92
2023-03-04T23:27:11.648Z,86.00
2023-03-04T23:29:41.572Z,86.10
2023-03-04T23:32:11.103Z,86.39
2023-03-04T23:34:44.672Z,86.45
2023-03-04T23:37:14.077Z,86.80
2023-03-04T23:39:43.169Z,86.65
2023-03-04T23:42:12.634Z,86.59
2023-03-04T23:44:41.971Z,86.48
2023-03-04T23:47:10.866Z,86.50
2023-03-04T23:49:40.163Z,86.53
2023-03-04T23:52:10.795Z,86.46
2023-03-04T23:54:39.580Z,86.25
2023-03-04T23:57:08.472Z,86.07
2023-03-04T23:59:38.554Z,85.67
